Time;durP1;ratioP1;P1;durP2;ratioP2;P2;SDS_P1;SDS_P2;PMS_P1;PMS_P2;Temp;Humidity;BMP_temperature;BMP_pressure;BME280_temperature;BME280_humidity;BME280_pressure;Samples;Min_cycle;Max_cycle;Signal;HPM_P1;HPM_P2
2022/06/23 00:00:47;;;;;;;13.68;7.80;;;;;;;22.29;88.52;95342.09;5013019;28;20202;-84
2022/06/23 00:03:19;;;;;;;8.73;7.75;;;;;;;22.41;88.18;95345.28;5013178;28;20230;-85
2022/06/23 00:05:58;;;;;;;10.90;7.90;;;;;;;22.46;87.98;95342.69;5013847;28;20693;-85
2022/06/23 00:08:26;;;;;;;12.15;8.10;;;;;;;22.52;87.24;95348.72;5014300;28;20339;-85
2022/06/23 00:10:56;;;;;;;10.18;7.47;;;;;;;22.59;86.65;95357.16;5013539;28;20207;-85
2022/06/23 00:13:26;;;;;;;10.50;7.78;;;;;;;22.59;86.15;95357.97;5013486;28;20226;-85
2022/06/23 00:15:55;;;;;;;9.63;7.68;;;;;;;22.55;86.29;95351.63;5013670;28;20218;-85
2022/06/23 00:18:25;;;;;;;10.43;7.75;;;;;;;22.56;86.21;95360.28;5013939;28;20215;-85
2022/06/23 00:20:54;;;;;;;10.55;7.50;;;;;;;22.58;86.05;95366.09;5013974;28;20233;-84
2022/06/23 00:23:24;;;;;;;12.57;7.53;;;;;;;22.55;86.48;95366.59;5025486;28;20713;-85
2022/06/23 00:25:57;;;;;;;13.38;7.30;;;;;;;22.53;86.37;95352.94;5033386;28;20206;-84
2022/06/23 00:28:28;;;;;;;10.85;8.05;;;;;;;22.44;87.66;95355.28;5036119;28;20248;-85
2022/06/23 00:30:57;;;;;;;12.43;7.47;;;;;;;22.33;88.26;95358.88;5036870;28;20194;-85
2022/06/23 00:33:27;;;;;;;9.20;7.50;;;;;;;22.39;87.82;95358.66;5023187;28;20241;-85
2022/06/23 00:35:55;;;;;;;13.20;8.23;;;;;;;22.36;88.30;95353.91;5016924;28;20222;-85
2022/06/23 00:38:26;;;;;;;8.77;7.63;;;;;;;22.30;89.35;95359.41;5017889;28;20569;-85
2022/06/23 00:40:55;;;;;;;8.93;7.82;;;;;;;22.24;90.03;95368.28;5016860;28;20198;-85
2022/06/23 00:43:23;;;;;;;10.63;7.75;;;;;;;22.23;89.65;95370.13;5016631;28;20234;-85
2022/06/23 00:45:55;;;;;;;10.75;7.40;;;;;;;22.22;90.13;95368.56;5017870;28;20195;-85
2022/06/23 00:48:26;;;;;;;14.50;7.65;;;;;;;22.25;90.01;95378.53;5018060;28;20206;-85
2022/06/23 00:51:00;;;;;;;12.43;7.90;;;;;;;22.33;88.29;95377.25;5017622;28;20207;-85
2022/06/23 00:53:30;;;;;;;14.45;7.82;;;;;;;22.34;88.25;95374.38;5018029;28;20235;-85
2022/06/23 00:56:07;;;;;;;13.18;7.43;;;;;;;22.30;89.41;95368.06;5018867;28;20222;-85
2022/06/23 00:58:39;;;;;;;9.23;7.65;;;;;;;22.34;87.83;95366.50;5018642;28;20229;-85
2022/06/23 01:01:14;;;;;;;11.45;7.78;;;;;;;22.30;88.76;95367.28;5016763;28;20203;-85
2022/06/23 01:03:50;;;;;;;9.65;7.28;;;;;;;22.38;87.60;95370.19;5016866;28;20290;-85
2022/06/23 01:06:26;;;;;;;10.10;6.97;;;;;;;22.40;87.14;95372.56;5017332;28;20815;-85
2022/06/23 01:08:58;;;;;;;8.93;7.53;;;;;;;22.45;86.57;95374.44;5017266;28;20206;-85
2022/06/23 01:11:30;;;;;;;10.50;7.35;;;;;;;22.50;86.00;95377.88;5016933;28;20306;-84
2022/06/23 01:14:07;;;;;;;8.40;7.18;;;;;;;22.52;85.36;95388.88;5016038;28;20262;-85
2022/06/23 01:16:41;;;;;;;13.48;6.75;;;;;;;22.53;84.62;95387.03;5016884;28;20965;-85
2022/06/23 01:19:44;;;;;;;12.32;7.28;;;;;;;22.49;84.38;95383.38;5016285;28;20206;-85
2022/06/23 01:22:20;;;;;;;9.90;7.15;;;;;;;22.50;84.37;95379.72;5017990;28;20234;-85
2022/06/23 01:24:55;;;;;;;10.60;7.15;;;;;;;22.51;84.16;95386.53;5035161;28;20197;-85
2022/06/23 01:27:37;;;;;;;9.82;6.88;;;;;;;22.51;84.07;95389.94;5036163;28;20197;-85
2022/06/23 01:30:06;;;;;;;12.85;6.40;;;;;;;22.53;83.78;95392.28;5035373;28;20198;-85
2022/06/23 01:32:38;;;;;;;12.55;7.00;;;;;;;22.54;83.56;95388.63;5029604;28;20625;-85
2022/06/23 01:35:14;;;;;;;7.75;6.00;;;;;;;22.54;83.36;95380.75;5015733;28;20226;-85
2022/06/23 01:37:45;;;;;;;11.70;6.30;;;;;;;22.55;82.54;95382.34;5015468;28;20662;-85
2022/06/23 01:40:20;;;;;;;10.70;6.88;;;;;;;22.54;82.42;95388.63;5014401;28;20726;-85
2022/06/23 01:42:52;;;;;;;11.63;6.68;;;;;;;22.52;82.26;95388.09;5015235;28;20225;-85
2022/06/23 01:45:25;;;;;;;10.40;6.40;;;;;;;22.54;81.97;95396.50;5015873;28;20198;-85
2022/06/23 01:47:59;;;;;;;10.90;6.30;;;;;;;22.52;82.08;95403.84;5016227;28;20195;-85
2022/06/23 01:50:35;;;;;;;9.70;6.47;;;;;;;22.51;82.19;95405.69;5015114;28;20337;-85
2022/06/23 01:53:21;;;;;;;9.52;6.15;;;;;;;22.51;82.18;95397.03;5015093;28;20676;-85
2022/06/23 01:56:07;;;;;;;8.23;5.68;;;;;;;22.48;81.82;95398.34;5015165;28;20305;-85
2022/06/23 01:58:52;;;;;;;11.60;5.90;;;;;;;22.43;81.87;95400.94;5015541;28;20203;-85
2022/06/23 02:01:27;;;;;;;8.30;5.85;;;;;;;22.42;81.68;95403.81;5014528;28;20614;-85
2022/06/23 02:04:02;;;;;;;10.57;5.53;;;;;;;22.43;81.78;95411.41;5014508;28;20238;-85
2022/06/23 02:06:39;;;;;;;10.52;5.82;;;;;;;22.41;81.30;95413.50;5015417;28;20221;-85
2022/06/23 02:09:13;;;;;;;10.10;5.32;;;;;;;22.45;81.03;95406.72;5016222;28;20202;-85
2022/06/23 02:11:45;;;;;;;9.38;5.88;;;;;;;22.41;81.06;95405.63;5014697;28;20675;-85
2022/06/23 02:14:39;;;;;;;8.65;5.22;;;;;;;22.35;81.28;95404.81;5015153;28;20231;-85
2022/06/23 02:17:19;;;;;;;9.13;5.32;;;;;;;22.33;81.58;95406.09;5015748;28;20229;-85
2022/06/23 02:19:49;;;;;;;8.27;4.90;;;;;;;22.26;81.19;95402.94;5015748;28;20203;-85
2022/06/23 02:22:22;;;;;;;11.60;5.40;;;;;;;22.29;81.36;95411.09;5018745;28;20256;-85
2022/06/23 02:24:56;;;;;;;13.93;5.47;;;;;;;22.27;81.09;95405.31;5035941;28;20213;-85
2022/06/23 02:27:26;;;;;;;9.93;4.63;;;;;;;22.21;81.08;95406.31;5035107;28;20558;-85
2022/06/23 02:30:00;;;;;;;10.43;4.68;;;;;;;22.23;80.84;95416.56;5035932;28;20202;-85
2022/06/23 02:32:41;;;;;;;9.73;4.85;;;;;;;22.25;80.67;95419.72;5029230;28;20230;-85
2022/06/23 02:35:16;;;;;;;7.80;4.60;;;;;;;22.21;81.07;95423.88;5015529;28;20753;-85
2022/06/23 02:37:55;;;;;;;6.43;4.45;;;;;;;22.26;80.48;95416.84;5015069;28;20206;-85
2022/06/23 02:40:28;;;;;;;8.00;4.75;;;;;;;22.32;80.21;95421.06;5014179;28;20218;-85
2022/06/23 02:43:00;;;;;;;9.98;4.72;;;;;;;22.33;80.12;95422.63;5014326;28;20234;-85
2022/06/23 02:45:54;;;;;;;8.30;4.30;;;;;;;22.28;80.92;95421.84;5014277;28;20199;-85
2022/06/23 02:48:35;;;;;;;7.50;5.03;;;;;;;22.33;81.01;95434.97;5014636;28;20321;-85
2022/06/23 02:51:18;;;;;;;6.97;4.75;;;;;;;22.34;81.58;95431.28;5013720;28;20211;-85
2022/06/23 02:54:02;;;;;;;12.65;5.30;;;;;;;22.32;81.05;95430.78;5013926;28;20231;-85
2022/06/23 02:56:44;;;;;;;10.48;5.07;;;;;;;22.27;81.02;95438.63;5013873;28;20230;-85
2022/06/23 02:59:18;;;;;;;11.30;4.68;;;;;;;22.22;81.10;95434.13;5014540;28;20202;-85
2022/06/23 03:01:52;;;;;;;9.95;5.32;;;;;;;22.21;81.24;95434.38;5013609;28;20737;-85
2022/06/23 03:04:25;;;;;;;9.77;5.35;;;;;;;22.17;81.52;95444.56;5014190;28;20671;-85
2022/06/23 03:07:02;;;;;;;8.63;4.85;;;;;;;22.13;81.61;95448.72;5014495;28;20202;-84
2022/06/23 03:09:33;;;;;;;10.68;5.47;;;;;;;22.10;82.21;95444.03;5014496;28;20210;-85
2022/06/23 03:12:07;;;;;;;9.15;5.15;;;;;;;22.04;82.20;95443.19;5013499;28;20289;-85
2022/06/23 03:14:40;;;;;;;6.57;4.35;;;;;;;22.05;82.13;95439.53;5014550;28;20207;-85
2022/06/23 03:17:17;;;;;;;9.35;4.78;;;;;;;22.08;82.13;95447.94;5014168;28;20227;-85
2022/06/23 03:19:54;;;;;;;13.10;5.25;;;;;;;22.07;81.74;95444.53;5014551;28;20248;-85
2022/06/23 03:22:27;;;;;;;10.95;5.00;;;;;;;22.13;81.38;95442.72;5018371;28;20233;-85
2022/06/23 03:25:02;;;;;;;8.85;4.80;;;;;;;22.12;81.45;95449.00;5034471;28;20581;-85
2022/06/23 03:27:31;;;;;;;11.77;4.40;;;;;;;22.09;81.48;95447.69;5034555;28;20212;-85
2022/06/23 03:30:02;;;;;;;9.00;5.13;;;;;;;22.12;81.31;95449.00;5034879;28;20263;-84
2022/06/23 03:32:36;;;;;;;8.40;4.50;;;;;;;22.13;81.08;95455.84;5028665;28;20237;-84
2022/06/23 03:35:13;;;;;;;9.68;4.95;;;;;;;22.13;81.23;95458.47;5014563;28;20238;-85
2022/06/23 03:37:48;;;;;;;14.65;5.20;;;;;;;22.07;81.40;95460.25;5014855;28;20207;-85
2022/06/23 03:43:20;;;;;;;11.10;5.00;;;;;;;21.98;81.81;95453.84;4972648;28;20266;-85
2022/06/23 03:45:52;;;;;;;11.60;4.57;;;;;;;22.01;81.90;95466.50;5005394;28;20249;-84
2022/06/23 03:48:25;;;;;;;8.50;4.88;;;;;;;22.04;81.75;95469.41;5014855;28;20628;-85
2022/06/23 03:50:58;;;;;;;12.27;4.68;;;;;;;22.06;81.82;95474.41;5013653;28;20225;-85
2022/06/23 03:53:29;;;;;;;7.40;4.72;;;;;;;22.08;81.59;95474.94;5013434;28;20294;-85
2022/06/23 03:55:57;;;;;;;11.40;4.95;;;;;;;;;;5014381;28;20226;-85
2022/06/23 03:58:31;;;;;;;13.55;5.13;;;;;;;21.97;81.91;95470.63;5014315;28;20206;-84
2022/06/23 04:00:59;;;;;;;11.77;5.40;;;;;;;;;;5013770;28;20221;-85
2022/06/23 04:03:32;;;;;;;8.10;4.72;;;;;;;21.96;81.70;95464.56;5017286;28;20226;-85
2022/06/23 04:06:22;;;;;;;10.32;4.63;;;;;;;21.94;81.84;95469.28;5018670;28;20206;-85
2022/06/23 04:09:06;;;;;;;8.75;4.50;;;;;;;21.97;81.41;95473.25;5018947;28;20198;-85
2022/06/23 04:11:44;;;;;;;12.98;5.10;;;;;;;22.01;81.17;95475.16;5017197;28;20286;-85
2022/06/23 04:14:14;;;;;;;12.55;5.07;;;;;;;22.04;80.98;95468.63;5017027;28;20233;-85
2022/06/23 04:16:41;;;;;;;9.95;4.75;;;;;;;21.98;81.24;95464.34;5018073;28;20218;-85
2022/06/23 04:19:12;;;;;;;6.57;4.30;;;;;;;;;;5017232;28;20206;-85
2022/06/23 04:21:43;;;;;;;12.63;4.68;;;;;;;21.94;81.43;95466.66;5016071;28;20206;-85
2022/06/23 04:24:17;;;;;;;7.88;4.35;;;;;;;21.91;82.13;95459.31;5036350;28;20238;-85
2022/06/23 04:26:47;;;;;;;10.52;5.05;;;;;;;21.95;81.56;95462.19;5037089;28;20198;-85
2022/06/23 04:29:21;;;;;;;11.90;4.63;;;;;;;21.92;81.77;95467.97;5037343;28;20210;-85
2022/06/23 04:31:52;;;;;;;8.95;4.78;;;;;;;21.95;80.93;95473.47;5036789;28;20202;-85
2022/06/23 04:34:23;;;;;;;9.65;4.95;;;;;;;22.02;80.60;95466.25;5036815;28;20866;-85
2022/06/23 04:36:50;;;;;;;13.93;5.13;;;;;;;22.09;80.33;95471.28;5037726;28;20222;-84
2022/06/23 04:39:24;;;;;;;8.82;4.75;;;;;;;22.13;80.16;95469.72;5037090;28;20644;-85
2022/06/23 04:41:54;;;;;;;11.00;4.93;;;;;;;22.18;80.03;95469.75;5037149;28;20263;-84
2022/06/23 04:44:25;;;;;;;12.52;4.90;;;;;;;22.28;79.23;95469.06;5038386;28;20202;-85
2022/06/23 04:46:55;;;;;;;10.80;4.72;;;;;;;22.37;78.92;95478.81;5039377;28;20183;-85
2022/06/23 04:49:26;;;;;;;12.35;5.25;;;;;;;22.45;78.05;95471.53;5035751;28;20255;-85
2022/06/23 04:51:57;;;;;;;12.00;4.80;;;;;;;22.52;77.52;95464.97;5040314;23;20365;-83
2022/06/23 04:54:26;;;;;;;8.93;4.97;;;;;;;22.67;77.57;95472.97;4993560;28;20234;-81
2022/06/23 04:57:01;;;;;;;11.02;5.20;;;;;;;22.72;75.74;95470.34;4997957;28;20222;-85
2022/06/23 04:59:37;;;;;;;10.32;4.68;;;;;;;22.70;75.51;95471.66;5014196;28;20228;-85
2022/06/23 05:02:16;;;;;;;9.80;4.35;;;;;;;22.76;75.70;95465.38;5023584;28;20233;-83
2022/06/23 05:04:46;;;;;;;11.88;5.00;;;;;;;22.83;75.47;95465.19;5033939;28;20259;-84
2022/06/23 05:07:22;;;;;;;13.82;5.65;;;;;;;22.92;74.97;95459.16;5035752;28;20634;-83
2022/06/23 05:09:52;;;;;;;10.60;5.05;;;;;;;22.91;74.86;95470.72;5035783;28;20202;-84
2022/06/23 05:12:24;;;;;;;9.88;4.95;;;;;;;22.91;74.55;95469.94;5033932;28;20229;-84
2022/06/23 05:14:58;;;;;;;12.13;5.20;;;;;;;23.02;74.10;95467.09;5034808;28;20285;-82
2022/06/23 05:17:27;;;;;;;9.80;4.45;;;;;;;22.96;73.86;95464.69;5034728;28;20276;-82
2022/06/23 05:19:58;;;;;;;7.50;4.82;;;;;;;23.06;74.17;95465.53;5035553;28;20670;-79
2022/06/23 05:22:28;;;;;;;7.95;4.43;;;;;;;23.20;73.97;95468.47;5033604;28;20237;-83
2022/06/23 05:24:57;;;;;;;10.25;4.03;;;;;;;23.26;70.78;95471.91;5036150;28;20264;-82
2022/06/23 05:27:30;;;;;;;8.13;4.80;;;;;;;23.21;72.14;95471.88;5035678;28;20202;-86
2022/06/23 05:30:25;;;;;;;9.98;4.30;;;;;;;23.22;70.43;95474.25;5034963;28;20210;-85
2022/06/23 05:32:56;;;;;;;8.02;4.13;;;;;;;23.17;70.18;95476.06;5032787;28;20344;-83
2022/06/23 05:35:29;;;;;;;11.85;5.18;;;;;;;23.33;70.66;95473.22;5034246;28;20198;-84
2022/06/23 05:38:00;;;;;;;10.02;4.50;;;;;;;23.56;70.43;95468.56;5034926;28;20608;-84
2022/06/23 05:40:31;;;;;;;8.57;4.68;;;;;;;23.46;69.20;95469.34;5033915;28;20225;-82
2022/06/23 05:43:00;;;;;;;31.67;28.38;;;;;;;23.57;69.85;95470.16;5032859;28;20249;-82
2022/06/23 05:45:29;;;;;;;9.68;5.18;;;;;;;23.57;67.33;95472.78;5034666;28;20229;-85
2022/06/23 05:47:58;;;;;;;8.60;4.47;;;;;;;23.59;68.50;95466.22;5033781;28;20202;-84
2022/06/23 05:50:29;;;;;;;15.05;8.27;;;;;;;23.63;67.31;95462.03;5034668;28;20277;-83
2022/06/23 05:53:00;;;;;;;7.05;4.68;;;;;;;23.72;68.08;95470.97;5033531;28;20230;-81
2022/06/23 05:55:33;;;;;;;6.82;4.20;;;;;;;23.50;66.53;95469.59;5035527;28;20198;-82
2022/06/23 05:58:10;;;;;;;8.73;4.32;;;;;;;23.54;66.88;95470.69;5035225;28;20218;-82
2022/06/23 06:00:46;;;;;;;7.60;3.92;;;;;;;23.48;66.89;95469.03;5034985;28;20290;-84
2022/06/23 06:03:19;;;;;;;7.25;3.97;;;;;;;23.57;67.02;95470.16;5034282;28;20225;-84
2022/06/23 06:05:49;;;;;;;8.95;3.78;;;;;;;23.62;66.61;95459.66;5036021;28;20200;-82
2022/06/23 06:08:23;;;;;;;9.02;4.07;;;;;;;23.64;66.75;95473.34;5034700;28;20210;-83
2022/06/23 06:10:50;;;;;;;11.07;3.83;;;;;;;23.67;65.53;95478.03;5034880;28;20206;-81
2022/06/23 06:13:20;;;;;;;6.85;3.55;;;;;;;23.73;64.52;95467.28;5033998;28;20280;-84
2022/06/23 06:15:51;;;;;;;5.32;3.15;;;;;;;23.77;63.16;95470.19;5034235;28;20662;-83
2022/06/23 06:18:23;;;;;;;6.60;2.85;;;;;;;23.92;63.31;95478.06;5035151;28;20202;-83
2022/06/23 06:20:54;;;;;;;8.00;3.55;;;;;;;24.04;63.21;95477.84;5032297;28;20870;-86
2022/06/23 06:23:29;;;;;;;6.18;3.30;;;;;;;24.10;62.59;95474.13;5033290;28;20226;-82
2022/06/23 06:25:58;;;;;;;5.72;3.33;;;;;;;24.04;63.30;95480.47;5021757;28;20209;-86
2022/06/23 06:28:29;;;;;;;7.65;3.35;;;;;;;24.05;63.70;95482.03;5014830;28;20203;-83
2022/06/23 06:31:02;;;;;;;14.68;11.02;;;;;;;24.22;63.95;95487.81;5022588;28;20197;-81
2022/06/23 06:33:42;;;;;;;10.68;6.60;;;;;;;24.31;63.46;95485.47;5033907;28;20721;-80
2022/06/23 06:36:26;;;;;;;9.25;5.35;;;;;;;24.37;62.71;95485.19;5033481;28;20221;-83
2022/06/23 06:38:59;;;;;;;8.38;4.00;;;;;;;24.19;63.57;95487.56;5032948;28;20252;-87
2022/06/23 06:41:26;;;;;;;7.90;3.00;;;;;;;24.08;62.65;95484.13;5032123;28;20705;-86
2022/06/23 06:43:52;;;;;;;6.97;3.67;;;;;;;24.00;63.67;95487.28;5032175;28;20288;-86
2022/06/23 06:46:20;;;;;;;9.18;3.55;;;;;;;24.11;62.83;95492.28;5032577;28;20201;-83
2022/06/23 06:48:46;;;;;;;7.80;3.85;;;;;;;24.16;62.99;95488.88;5031630;28;20198;-86
2022/06/23 06:51:20;;;;;;;4.85;3.50;;;;;;;24.30;61.96;95489.94;5030447;28;20749;-84
2022/06/23 06:53:51;;;;;;;6.75;3.17;;;;;;;24.39;62.19;95487.56;5033280;28;20234;-82
2022/06/23 06:56:23;;;;;;;9.00;3.50;;;;;;;24.42;62.27;95487.84;5034711;28;20268;-82
2022/06/23 06:58:57;;;;;;;8.50;3.60;;;;;;;24.39;60.42;95496.25;5033743;28;20224;-84
2022/06/23 07:01:26;;;;;;;7.93;2.80;;;;;;;24.36;59.57;95501.25;5032039;28;20295;-86
2022/06/23 07:03:54;;;;;;;8.50;3.33;;;;;;;24.41;60.03;95506.53;5027379;28;20225;-86
2022/06/23 07:06:29;;;;;;;8.50;3.38;;;;;;;24.45;59.83;95499.66;5032824;28;20738;-85
2022/06/23 07:09:03;;;;;;;8.90;2.88;;;;;;;24.39;58.97;95495.47;5033042;28;20198;-85
2022/06/23 07:11:36;;;;;;;7.45;3.17;;;;;;;24.41;58.65;95491.50;5032259;28;20293;-84
2022/06/23 07:14:12;;;;;;;8.05;3.50;;;;;;;24.59;59.53;95500.69;5032901;28;20234;-86
2022/06/23 07:16:42;;;;;;;5.38;3.25;;;;;;;24.49;58.06;95497.28;5032518;28;20279;-85
2022/06/23 07:19:14;;;;;;;8.40;3.20;;;;;;;24.35;58.76;95497.84;5033235;28;20271;-86
2022/06/23 07:21:47;;;;;;;4.38;3.15;;;;;;;24.33;59.56;95488.63;5031566;28;20317;-86
2022/06/23 07:24:18;;;;;;;5.22;2.70;;;;;;;24.43;59.57;95496.53;5032127;28;20230;-83
2022/06/23 07:26:49;;;;;;;5.50;3.03;;;;;;;24.56;60.17;95488.06;5032527;28;20194;-85
2022/06/23 07:29:29;;;;;;;6.32;3.10;;;;;;;24.63;60.30;95482.53;5032571;28;20882;-84
2022/06/23 07:32:06;;;;;;;8.52;3.50;;;;;;;24.75;58.69;95489.06;5031421;28;20222;-86
2022/06/23 07:34:37;;;;;;;6.63;3.03;;;;;;;24.81;57.84;95489.84;5032600;28;20705;-84
2022/06/23 07:37:11;;;;;;;9.38;3.05;;;;;;;24.80;57.53;95477.75;5031636;28;20659;-84
2022/06/23 07:39:40;;;;;;;10.77;3.20;;;;;;;24.84;57.20;95477.97;5032719;28;20205;-84
2022/06/23 07:42:13;;;;;;;6.32;2.90;;;;;;;24.93;57.32;95477.16;5031258;28;20225;-86
2022/06/23 07:44:43;;;;;;;5.93;3.35;;;;;;;25.04;57.46;95478.72;5032753;28;20202;-85
2022/06/23 07:47:10;;;;;;;8.93;2.90;;;;;;;25.18;57.28;95478.94;5031493;28;20655;-86
2022/06/23 07:49:36;;;;;;;5.30;3.08;;;;;;;25.16;55.95;95482.91;5032643;28;20198;-86
2022/06/23 07:52:04;;;;;;;6.45;3.25;;;;;;;25.12;56.39;95477.38;5030706;28;20233;-84
2022/06/23 07:54:32;;;;;;;10.93;3.22;;;;;;;25.15;55.77;95482.09;5031560;28;20210;-84
2022/06/23 07:56:59;;;;;;;9.50;4.72;;;;;;;25.20;56.82;95479.47;5031916;28;20229;-84
2022/06/23 07:59:38;;;;;;;6.35;3.88;;;;;;;25.30;55.25;95476.75;5031492;28;20248;-86
2022/06/23 08:02:14;;;;;;;13.32;5.38;;;;;;;25.35;55.01;95475.94;5030636;28;20224;-85
2022/06/23 08:04:52;;;;;;;5.65;3.60;;;;;;;25.37;54.54;95477.25;5032238;28;20201;-83
2022/06/23 08:07:20;;;;;;;5.40;2.92;;;;;;;25.45;54.66;95470.59;5032428;28;20198;-85
2022/06/23 08:09:50;;;;;;;9.35;3.08;;;;;;;25.61;54.10;95469.44;5032420;28;20238;-84
2022/06/23 08:18:03;;;;;;;6.78;2.95;;;;;;;25.80;51.64;95456.41;5032752;28;20612;-85
2022/06/23 08:20:36;;;;;;;8.65;3.13;;;;;;;25.82;51.05;95451.66;5031639;28;20233;-85
2022/06/23 08:23:04;;;;;;;6.57;2.97;;;;;;;25.76;50.87;95453.56;5032150;28;20234;-84
2022/06/23 08:25:31;;;;;;;7.70;2.55;;;;;;;25.98;52.04;95450.47;5031790;28;20735;-86
2022/06/23 08:28:01;;;;;;;6.55;2.30;;;;;;;26.03;49.63;95457.56;5031694;28;20226;-82
2022/06/23 08:30:29;;;;;;;5.80;2.50;;;;;;;26.16;49.92;95459.59;5031227;28;20572;-82
2022/06/23 08:32:56;;;;;;;10.52;3.35;;;;;;;26.27;49.75;95455.78;5031748;28;20225;-82
2022/06/23 08:35:28;;;;;;;4.75;2.83;;;;;;;26.39;49.24;95445.66;5032952;28;20237;-82
2022/06/23 08:37:58;;;;;;;8.45;3.03;;;;;;;26.54;50.38;95438.66;5032245;28;20705;-81
2022/06/23 08:40:34;;;;;;;8.10;2.97;;;;;;;26.70;49.85;95446.13;5031177;28;20344;-82
2022/06/23 08:43:13;;;;;;;7.13;2.90;;;;;;;26.69;47.52;95441.91;5030707;28;20288;-84
2022/06/23 08:45:44;;;;;;;7.75;3.10;;;;;;;26.78;48.32;95437.56;5031984;28;20228;-86
2022/06/23 08:48:17;;;;;;;4.90;2.58;;;;;;;26.76;46.83;95436.28;5032201;28;20198;-86
2022/06/23 08:50:49;;;;;;;4.80;2.95;;;;;;;26.82;47.55;95432.50;5034077;28;20210;-85
2022/06/23 08:53:25;;;;;;;8.13;3.22;;;;;;;26.82;47.23;95429.88;5034228;28;20280;-85
2022/06/23 08:56:00;;;;;;;6.55;3.20;;;;;;;27.04;47.73;95437.28;5035229;28;20581;-84
2022/06/23 08:58:34;;;;;;;6.75;3.10;;;;;;;27.08;47.65;95422.44;5034757;28;20221;-84
2022/06/23 09:01:08;;;;;;;7.10;3.00;;;;;;;27.03;48.91;95425.94;5034347;28;20198;-84
2022/06/23 09:03:44;;;;;;;9.18;3.33;;;;;;;27.24;48.19;95426.47;5035053;28;20577;-81
2022/06/23 09:06:25;;;;;;;9.50;3.30;;;;;;;27.47;47.99;95425.59;5036318;28;20233;-84
2022/06/23 09:09:00;;;;;;;8.55;2.72;;;;;;;27.57;48.87;95419.41;5034896;28;20201;-83
2022/06/23 09:11:34;;;;;;;6.15;2.95;;;;;;;27.72;48.48;95415.72;5034357;28;20911;-82
2022/06/23 09:14:30;;;;;;;6.82;2.97;;;;;;;27.89;47.75;95423.16;5035403;28;20438;-83
2022/06/23 09:17:11;;;;;;;4.65;2.92;;;;;;;28.00;47.84;95411.31;5036214;28;20306;-84
2022/06/23 09:19:58;;;;;;;7.00;3.20;;;;;;;28.02;46.88;95409.16;5035235;28;20665;-83
2022/06/23 09:22:56;;;;;;;8.48;3.33;;;;;;;28.11;45.17;95402.09;5034473;28;20725;-82
2022/06/23 09:25:35;;;;;;;8.10;2.90;;;;;;;28.13;44.67;95394.66;5035555;28;20657;-84
2022/06/23 09:28:17;;;;;;;3.22;2.17;;;;;;;27.95;43.24;95391.00;5035854;28;20569;-82
2022/06/23 09:30:54;;;;;;;7.30;2.65;;;;;;;27.97;43.63;95388.06;5034351;28;20198;-84
2022/06/23 09:33:33;;;;;;;6.00;2.63;;;;;;;27.97;43.00;95388.84;5035281;28;20229;-82
2022/06/23 09:36:26;;;;;;;7.50;2.72;;;;;;;28.04;43.75;95383.97;5035822;28;20229;-82
2022/06/23 09:39:08;;;;;;;5.78;2.50;;;;;;;28.08;43.50;95386.81;5037020;28;20595;-84
2022/06/23 09:42:06;;;;;;;9.82;2.88;;;;;;;28.31;43.82;95374.50;5034774;28;20276;-81
2022/06/23 09:44:51;;;;;;;6.50;2.58;;;;;;;28.36;43.55;95371.78;5036690;28;20230;-84
2022/06/23 09:47:53;;;;;;;4.28;2.70;;;;;;;28.54;43.08;95381.47;5035693;28;20224;-83
2022/06/23 09:50:36;;;;;;;4.70;2.78;;;;;;;28.61;42.68;95371.28;5024437;28;20202;-84
2022/06/23 09:53:43;;;;;;;7.35;3.30;;;;;;;28.47;43.58;95373.16;5036059;28;20320;-84
2022/06/23 09:56:29;;;;;;;9.32;2.70;;;;;;;28.65;43.08;95371.47;5023758;28;20198;-82
2022/06/23 09:59:40;;;;;;;4.63;2.72;;;;;;;28.92;43.32;95363.50;5038062;28;20229;-82
2022/06/23 10:02:19;;;;;;;4.40;2.20;;;;;;;29.08;41.57;95362.09;5007543;28;20228;-83
2022/06/23 10:04:59;;;;;;;4.40;2.28;;;;;;;29.13;41.04;95355.91;5036584;28;20198;-83
2022/06/23 10:07:50;;;;;;;6.88;2.53;;;;;;;29.06;40.18;95356.31;5036992;28;20205;-82
2022/06/23 10:10:31;;;;;;;5.25;2.20;;;;;;;29.24;39.69;95353.81;5035079;28;20210;-83
2022/06/23 10:13:12;;;;;;;6.60;2.53;;;;;;;29.33;40.14;95344.03;5036431;28;20462;-84
2022/06/23 10:15:54;;;;;;;7.78;2.55;;;;;;;29.43;40.20;95354.47;5036877;28;20202;-83
2022/06/23 10:18:41;;;;;;;3.75;2.20;;;;;;;29.51;39.63;95338.59;5035715;28;20217;-81
2022/06/23 10:21:26;;;;;;;8.68;2.92;;;;;;;29.82;37.91;95343.94;5035622;28;20199;-84
2022/06/23 10:24:19;;;;;;;9.73;2.63;;;;;;;29.94;38.94;95347.91;5035634;28;20230;-82
2022/06/23 10:27:11;;;;;;;8.35;2.38;;;;;;;30.01;38.21;95342.97;5036071;28;20199;-84
2022/06/23 10:29:54;;;;;;;7.75;2.40;;;;;;;30.18;37.26;95346.50;5035873;28;20289;-83
2022/06/23 10:33:08;;;;;;;6.30;2.38;;;;;;;30.05;36.39;95350.00;5013475;28;20238;-82
2022/06/23 10:35:49;;;;;;;5.13;2.20;;;;;;;30.29;37.28;95344.34;5034075;28;20210;-85
2022/06/23 10:38:34;;;;;;;4.60;2.05;;;;;;;30.33;37.39;95339.97;5036516;28;20226;-83
2022/06/23 10:41:20;;;;;;;7.22;2.60;;;;;;;30.34;38.03;95343.41;5033514;28;20194;-83
2022/06/23 10:43:57;;;;;;;6.43;2.92;;;;;;;30.36;37.10;95339.38;5034609;28;20669;-81
2022/06/23 10:46:30;;;;;;;7.57;2.72;;;;;;;30.35;38.41;95334.38;5035455;28;20244;-84
2022/06/23 10:49:21;;;;;;;9.00;2.38;;;;;;;30.09;38.65;95343.00;5034694;28;20202;-83
2022/06/23 10:52:11;;;;;;;8.98;2.63;;;;;;;30.12;38.83;95329.13;5033682;28;20226;-82
2022/06/23 10:55:10;;;;;;;8.27;2.70;;;;;;;29.54;40.29;95315.97;5034667;28;20222;-83
2022/06/23 10:57:54;;;;;;;8.75;4.25;;;;;;;28.95;43.23;95320.50;5034544;28;20229;-82
2022/06/23 11:00:27;;;;;;;5.88;3.15;;;;;;;28.63;43.92;95323.31;5030923;28;20201;-81
2022/06/23 11:03:35;;;;;;;8.15;2.95;;;;;;;28.33;45.61;95314.09;5033365;28;20239;-81
2022/06/23 11:06:35;;;;;;;5.47;2.70;;;;;;;28.16;45.72;95314.66;5034713;28;20198;-81
2022/06/23 11:09:17;;;;;;;6.32;2.53;;;;;;;28.00;46.10;95316.03;5023293;28;20199;-84
2022/06/23 11:11:57;;;;;;;8.20;2.78;;;;;;;27.89;46.43;95320.72;5032640;28;20218;-83
2022/06/23 11:14:41;;;;;;;5.38;2.67;;;;;;;27.72;46.94;95308.03;5033833;28;20213;-82
2022/06/23 11:17:13;;;;;;;12.20;3.50;;;;;;;27.72;47.15;95313.31;5033981;28;20727;-82
2022/06/23 11:19:53;;;;;;;10.32;3.38;;;;;;;27.85;46.99;95306.50;5034544;28;20198;-84
2022/06/23 11:22:34;;;;;;;8.57;2.90;;;;;;;28.47;46.09;95302.44;5033677;28;20233;-84
2022/06/23 11:25:16;;;;;;;6.93;2.47;;;;;;;28.77;45.12;95308.94;5034348;28;20226;-82
2022/06/23 11:27:51;;;;;;;9.52;2.97;;;;;;;29.21;43.12;95292.34;5034360;28;20624;-81
2022/06/23 11:30:26;;;;;;;7.68;3.22;;;;;;;29.58;42.96;95293.06;5032985;28;20194;-84
2022/06/23 11:33:14;;;;;;;11.32;3.40;;;;;;;29.96;42.80;95287.31;5032955;28;20252;-83
2022/06/23 11:36:13;;;;;;;11.02;3.25;;;;;;;29.61;42.63;95289.03;5013702;28;20210;-83
2022/06/23 11:39:02;;;;;;;7.53;2.90;;;;;;;29.17;43.58;95285.28;5006193;28;20223;-84
2022/06/23 11:41:57;;;;;;;8.13;4.15;;;;;;;28.97;43.49;95286.53;5005363;28;20237;-84
2022/06/23 11:44:44;;;;;;;12.77;11.55;;;;;;;28.64;44.61;95269.22;5004159;28;20214;-83
2022/06/23 11:47:22;;;;;;;11.88;4.03;;;;;;;28.83;43.67;95267.25;5013646;28;20245;-83
2022/06/23 11:50:02;;;;;;;9.20;3.20;;;;;;;29.26;43.59;95270.19;5013511;28;20253;-84
2022/06/23 11:52:50;;;;;;;7.07;3.22;;;;;;;29.70;42.89;95264.09;5013210;28;20226;-84
2022/06/23 11:55:32;;;;;;;8.20;2.78;;;;;;;30.00;42.25;95269.72;5014674;28;20209;-84
2022/06/23 11:58:18;;;;;;;9.35;3.10;;;;;;;30.05;42.12;95272.22;5014174;28;20230;-84
2022/06/23 12:00:57;;;;;;;4.18;2.50;;;;;;;30.02;40.96;95265.63;5012617;28;20209;-84
2022/06/23 12:03:51;;;;;;;7.43;2.70;;;;;;;29.68;41.49;95262.81;5017296;28;20225;-84
2022/06/23 12:06:29;;;;;;;8.35;3.00;;;;;;;29.66;40.85;95255.16;5032365;28;20206;-82
2022/06/23 12:09:01;;;;;;;7.75;2.58;;;;;;;29.98;41.93;95256.75;5032952;28;20198;-83
2022/06/23 12:11:31;;;;;;;4.95;2.63;;;;;;;30.32;42.05;95252.63;5032162;28;20233;-82
2022/06/23 12:14:00;;;;;;;6.28;2.65;;;;;;;30.35;39.66;95249.34;5032270;28;20463;-83
2022/06/23 12:16:27;;;;;;;6.28;3.22;;;;;;;30.39;41.04;95248.41;5033738;28;20210;-83
2022/06/23 12:18:59;;;;;;;10.52;2.58;;;;;;;29.93;42.16;95245.44;5032341;28;20240;-82
2022/06/23 12:21:42;;;;;;;10.18;3.00;;;;;;;29.54;42.37;95244.34;5032261;28;20697;-84